Time;durP1;ratioP1;P1;durP2;ratioP2;P2;SDS_P1;SDS_P2;PMS_P1;PMS_P2;Temp;Humidity;BMP_temperature;BMP_pressure;BME280_temperature;BME280_humidity;BME280_pressure;Samples;Min_cycle;Max_cycle;Signal;HPM_P1;HPM_P2
2021/01/17 00:00:12;;;;;;;20.42;13.45;;;1.60;84.30;;;;;;4997916;28;20034;-85
2021/01/17 00:02:38;;;;;;;23.08;13.82;;;1.70;84.30;;;;;;4996984;28;20026;-85
2021/01/17 00:05:15;;;;;;;22.98;15.05;;;1.70;84.20;;;;;;5014042;28;20125;-84
2021/01/17 00:07:40;;;;;;;25.23;15.80;;;1.70;84.10;;;;;;5014675;28;20057;-87
2021/01/17 00:10:12;;;;;;;24.65;16.10;;;1.70;84.10;;;;;;5021522;28;20018;-85
2021/01/17 00:12:39;;;;;;;26.25;16.77;;;1.70;84.10;;;;;;5009703;28;20023;-86
2021/01/17 00:15:10;;;;;;;16.17;10.02;;;1.60;84.70;;;;;;5012092;28;20423;-86
2021/01/17 00:20:34;;;;;;;26.23;16.55;;;1.70;84.10;;;;;;4979022;28;20065;-88
2021/01/17 00:23:04;;;;;;;16.50;10.27;;;1.60;84.10;;;;;;5015265;28;21134;-85
2021/01/17 00:25:30;;;;;;;18.60;11.55;;;1.60;84.20;;;;;;5009479;28;20053;-84
2021/01/17 00:27:58;;;;;;;19.98;12.75;;;1.70;84.20;;;;;;4988267;28;20034;-84
2021/01/17 00:30:25;;;;;;;29.42;17.40;;;1.70;84.20;;;;;;4989441;28;20038;-84
2021/01/17 00:32:53;;;;;;;23.88;15.00;;;1.70;84.20;;;;;;4991293;28;20030;-85
2021/01/17 00:35:22;;;;;;;18.48;11.88;;;1.70;84.30;;;;;;4987110;28;20130;-85
2021/01/17 00:37:52;;;;;;;14.95;10.10;;;1.70;84.20;;;;;;5010573;28;20423;-86
2021/01/17 00:40:18;;;;;;;29.98;18.02;;;1.70;84.20;;;;;;4993153;28;20038;-84
2021/01/17 00:42:45;;;;;;;33.92;19.88;;;1.70;84.10;;;;;;4981352;28;20037;-86
2021/01/17 00:45:13;;;;;;;23.42;14.18;;;1.70;84.20;;;;;;5004438;28;20057;-85
2021/01/17 00:47:43;;;;;;;29.80;18.70;;;1.70;84.20;;;;;;5008765;28;20018;-85
2021/01/17 00:50:09;;;;;;;19.00;12.20;;;1.70;84.40;;;;;;4991620;28;20041;-85
2021/01/17 00:52:35;;;;;;;21.98;13.23;;;1.70;84.40;;;;;;4991524;28;20029;-85
2021/01/17 00:55:00;;;;;;;22.20;12.93;;;1.70;84.30;;;;;;4991921;28;20014;-85
2021/01/17 00:57:27;;;;;;;22.08;12.90;;;1.70;84.30;;;;;;4990075;28;20030;-84
2021/01/17 00:59:53;;;;;;;18.08;11.30;;;1.70;84.40;;;;;;4988848;28;20049;-84
2021/01/17 01:02:18;;;;;;;15.77;9.02;;;1.70;84.50;;;;;;4983218;28;20026;-85
2021/01/17 01:04:44;;;;;;;14.80;9.18;;;1.80;84.40;;;;;;4990593;28;20469;-85
2021/01/17 01:07:09;;;;;;;22.60;13.27;;;1.80;84.30;;;;;;4990208;28;20030;-86
2021/01/17 01:09:35;;;;;;;30.55;19.58;;;1.80;84.20;;;;;;4990215;28;20049;-85
2021/01/17 01:12:01;;;;;;;19.08;11.40;;;1.70;84.20;;;;;;4993181;28;20026;-85
2021/01/17 01:14:26;;;;;;;21.25;12.93;;;1.70;84.40;;;;;;4993309;28;20113;-86
2021/01/17 01:16:53;;;;;;;17.73;10.40;;;1.70;84.50;;;;;;4989595;28;20018;-85
2021/01/17 01:19:19;;;;;;;21.83;12.75;;;1.70;84.40;;;;;;4992329;28;20081;-86
2021/01/17 01:21:45;;;;;;;22.10;13.25;;;1.70;84.30;;;;;;4992920;28;20030;-86
2021/01/17 01:24:11;;;;;;;12.45;8.27;;;1.80;84.40;;;;;;4986463;28;20087;-85
2021/01/17 01:26:42;;;;;;;16.02;9.90;;;1.80;84.30;;;;;;4992052;28;20023;-85
2021/01/17 01:29:09;;;;;;;21.60;13.25;;;1.80;84.30;;;;;;4989879;28;20042;-85
2021/01/17 01:31:36;;;;;;;34.50;21.05;;;1.80;84.20;;;;;;4992944;28;20034;-85
2021/01/17 01:34:02;;;;;;;21.70;13.27;;;1.80;84.30;;;;;;4993157;28;20031;-85
2021/01/17 01:36:30;;;;;;;35.33;21.17;;;1.80;84.30;;;;;;4991555;28;20030;-85
2021/01/17 01:38:57;;;;;;;24.33;13.68;;;1.80;84.30;;;;;;4993761;28;20084;-85
2021/01/17 01:41:27;;;;;;;25.48;15.10;;;1.80;84.40;;;;;;4991048;28;20664;-84
2021/01/17 01:43:53;;;;;;;22.55;14.13;;;1.80;84.40;;;;;;4990789;28;20476;-83
2021/01/17 01:46:21;;;;;;;23.98;13.35;;;1.70;84.40;;;;;;4993281;28;20033;-84
2021/01/17 01:48:48;;;;;;;23.52;14.20;;;1.70;84.50;;;;;;4982372;28;20034;-85
2021/01/17 01:51:18;;;;;;;20.85;11.77;;;1.80;84.50;;;;;;4992381;28;20023;-85
2021/01/17 01:53:44;;;;;;;31.88;17.75;;;1.80;84.50;;;;;;4992674;28;20022;-85
2021/01/17 01:56:10;;;;;;;21.88;13.05;;;1.90;84.40;;;;;;4994329;28;20029;-86
2021/01/17 01:58:40;;;;;;;35.50;19.58;;;1.90;84.40;;;;;;4992095;28;20117;-86
2021/01/17 02:01:06;;;;;;;21.50;11.68;;;1.80;84.40;;;;;;4992821;28;20042;-86
2021/01/17 02:03:32;;;;;;;18.30;10.48;;;1.80;84.50;;;;;;4991861;28;20014;-85
2021/01/17 02:05:58;;;;;;;19.70;10.85;;;1.90;84.60;;;;;;4992582;28;20030;-84
2021/01/17 02:08:43;;;;;;;19.73;11.20;;;1.90;84.60;;;;;;4993689;28;20565;-85
2021/01/17 02:11:24;;;;;;;13.70;7.57;;;1.90;84.60;;;;;;4988440;28;20049;-85
2021/01/17 02:14:15;;;;;;;18.83;9.95;;;1.90;84.50;;;;;;4992462;28;20514;-84
2021/01/17 02:16:43;;;;;;;20.55;12.15;;;1.90;84.40;;;;;;4991157;28;20034;-86
2021/01/17 02:19:13;;;;;;;24.13;13.73;;;1.90;84.40;;;;;;5001695;28;20058;-84
2021/01/17 02:21:45;;;;;;;23.60;12.75;;;1.90;84.40;;;;;;5000059;28;20037;-86
2021/01/17 02:24:11;;;;;;;18.35;10.32;;;2.00;84.40;;;;;;4986528;28;20029;-85
2021/01/17 02:26:41;;;;;;;19.13;10.95;;;2.00;84.40;;;;;;4990788;28;20092;-85
2021/01/17 02:29:08;;;;;;;26.77;15.52;;;2.00;84.40;;;;;;4991425;28;20049;-85
2021/01/17 02:31:35;;;;;;;15.57;8.55;;;2.00;84.30;;;;;;4991653;28;20204;-85
2021/01/17 02:34:03;;;;;;;13.48;7.85;;;2.00;84.30;;;;;;4991717;28;20030;-85
2021/01/17 02:36:45;;;;;;;20.38;11.25;;;2.00;84.30;;;;;;4991827;28;20026;-84
2021/01/17 02:39:15;;;;;;;24.95;13.90;;;2.00;84.20;;;;;;4989453;28;20125;-85
2021/01/17 02:41:58;;;;;;;26.23;14.70;;;2.00;84.10;;;;;;4991672;28;20045;-84
2021/01/17 02:44:28;;;;;;;;;;;2.00;84.20;;;;;;4991331;28;20019;-85
2021/01/17 02:46:56;;;;;;;23.58;12.00;;;2.00;84.30;;;;;;4990929;28;20435;-84
2021/01/17 02:49:21;;;;;;;14.85;8.45;;;2.00;84.40;;;;;;4989596;28;20137;-85
2021/01/17 02:51:48;;;;;;;21.02;11.73;;;2.00;84.40;;;;;;4989319;28;20286;-85
2021/01/17 02:54:36;;;;;;;26.83;14.35;;;2.00;84.30;;;;;;4989935;28;20100;-85
2021/01/17 02:57:06;;;;;;;22.77;13.30;;;2.00;84.30;;;;;;4987736;28;20042;-84
2021/01/17 02:59:57;;;;;;;16.88;9.50;;;2.00;84.40;;;;;;4990735;28;20035;-84
2021/01/17 03:02:27;;;;;;;28.77;15.40;;;2.10;85.10;;;;;;4983707;28;20042;-85
2021/01/17 03:04:57;;;;;;;14.85;8.77;;;2.00;84.40;;;;;;4991331;28;20046;-84
2021/01/17 03:07:23;;;;;;;23.40;13.18;;;2.00;84.50;;;;;;4989450;28;20026;-84
2021/01/17 03:09:53;;;;;;;19.67;10.68;;;2.00;84.60;;;;;;4991317;28;20642;-83
2021/01/17 03:12:19;;;;;;;24.67;13.95;;;2.00;84.70;;;;;;4985377;28;20032;-85
2021/01/17 03:14:47;;;;;;;24.73;14.02;;;2.00;85.30;;;;;;4990579;28;20480;-85
2021/01/17 03:17:13;;;;;;;35.90;20.42;;;2.00;84.80;;;;;;4990012;28;20037;-85
2021/01/17 03:19:40;;;;;;;18.15;10.93;;;1.90;84.80;;;;;;4991047;28;20050;-85
2021/01/17 03:22:06;;;;;;;19.45;10.45;;;1.90;85.10;;;;;;4973432;28;20547;-85
2021/01/17 03:24:31;;;;;;;20.30;11.93;;;2.00;85.10;;;;;;4973358;28;20034;-84
2021/01/17 03:26:57;;;;;;;25.27;14.70;;;2.00;85.10;;;;;;4990155;28;20528;-84
2021/01/17 03:29:22;;;;;;;13.05;7.75;;;2.00;85.10;;;;;;4990811;28;20532;-85
2021/01/17 03:31:53;;;;;;;26.08;14.30;;;2.00;85.20;;;;;;4990735;28;20026;-85
2021/01/17 03:34:18;;;;;;;13.77;7.55;;;2.00;85.20;;;;;;4995040;28;20104;-84
2021/01/17 03:36:44;;;;;;;21.83;12.32;;;1.90;85.20;;;;;;4988737;28;20073;-83
2021/01/17 03:39:10;;;;;;;15.73;9.55;;;2.00;85.20;;;;;;4989550;28;20068;-84
2021/01/17 03:41:35;;;;;;;20.55;12.05;;;2.00;85.30;;;;;;4989153;28;20085;-84
2021/01/17 03:44:01;;;;;;;24.33;14.18;;;2.00;85.30;;;;;;4987244;28;20109;-84
2021/01/17 03:46:27;;;;;;;29.73;15.43;;;2.00;85.30;;;;;;5000775;28;20061;-83
2021/01/17 03:48:54;;;;;;;16.20;9.27;;;2.00;85.40;;;;;;4989317;28;20026;-84
2021/01/17 03:51:20;;;;;;;13.23;8.02;;;2.00;85.50;;;;;;5004150;28;20468;-83
2021/01/17 03:53:45;;;;;;;15.55;9.20;;;2.00;85.40;;;;;;5010633;28;20022;-84
2021/01/17 03:56:11;;;;;;;10.68;6.50;;;2.10;85.40;;;;;;5009418;28;20031;-84
2021/01/17 03:58:36;;;;;;;11.38;6.07;;;2.10;85.40;;;;;;4990521;28;20030;-84
2021/01/17 04:01:02;;;;;;;17.85;11.00;;;2.20;85.30;;;;;;4988753;28;20026;-84
2021/01/17 04:03:28;;;;;;;15.32;7.97;;;2.20;85.20;;;;;;4990489;28;20041;-85
2021/01/17 04:05:55;;;;;;;21.75;12.63;;;2.10;85.20;;;;;;4990239;28;20030;-84
2021/01/17 04:08:20;;;;;;;16.23;9.93;;;2.20;85.30;;;;;;4979671;28;20023;-85
2021/01/17 04:10:46;;;;;;;22.08;12.32;;;2.20;85.30;;;;;;4980401;28;20038;-84
2021/01/17 04:13:11;;;;;;;18.92;11.75;;;2.10;85.30;;;;;;4979268;28;20019;-85
2021/01/17 04:15:37;;;;;;;15.82;9.27;;;2.10;85.50;;;;;;4987784;28;20476;-84
2021/01/17 04:18:03;;;;;;;11.55;6.85;;;2.10;85.60;;;;;;4982857;28;20456;-84
2021/01/17 04:20:28;;;;;;;13.52;8.10;;;2.10;85.60;;;;;;4990763;28;20379;-85
2021/01/17 04:23:01;;;;;;;18.23;11.35;;;2.10;85.60;;;;;;4990778;28;20428;-84
2021/01/17 04:25:27;;;;;;;19.17;10.65;;;2.10;85.60;;;;;;4989559;28;20061;-84
2021/01/17 04:27:52;;;;;;;12.40;7.72;;;2.10;85.70;;;;;;4989800;28;20664;-84
2021/01/17 04:30:18;;;;;;;12.30;6.95;;;2.10;86.30;;;;;;4992887;28;20054;-84
2021/01/17 04:32:44;;;;;;;12.00;7.40;;;2.10;85.60;;;;;;4991560;28;20124;-85
2021/01/17 04:35:13;;;;;;;15.70;9.73;;;2.10;85.60;;;;;;4995710;28;20461;-85
2021/01/17 04:37:38;;;;;;;12.55;7.00;;;2.10;85.50;;;;;;5007757;28;20022;-86
2021/01/17 04:40:05;;;;;;;25.27;13.35;;;2.20;85.60;;;;;;5016301;28;20026;-84
2021/01/17 04:42:36;;;;;;;18.08;11.35;;;2.20;85.60;;;;;;5015065;28;20022;-85
2021/01/17 04:45:09;;;;;;;11.50;6.60;;;2.10;85.80;;;;;;5005671;28;20571;-85
2021/01/17 04:47:36;;;;;;;22.58;13.00;;;2.20;85.90;;;;;;4995672;28;20472;-85
2021/01/17 04:50:05;;;;;;;18.90;11.07;;;2.20;85.80;;;;;;5008482;28;20086;-84
2021/01/17 04:52:41;;;;;;;18.98;11.25;;;2.20;85.90;;;;;;5006407;28;20073;-84
2021/01/17 04:55:09;;;;;;;17.52;11.07;;;2.20;85.90;;;;;;5010313;28;20030;-84
2021/01/17 04:57:40;;;;;;;14.50;8.48;;;2.10;85.90;;;;;;4994692;28;20035;-84
2021/01/17 05:00:08;;;;;;;20.90;12.45;;;2.20;86.00;;;;;;4978729;28;20496;-84
2021/01/17 05:02:35;;;;;;;14.77;9.05;;;2.20;85.90;;;;;;4983966;28;20038;-84
2021/01/17 05:05:23;;;;;;;10.85;6.90;;;2.20;86.00;;;;;;5004340;28;20191;-84
2021/01/17 05:08:08;;;;;;;13.40;8.52;;;2.20;86.00;;;;;;4994675;28;20026;-84
2021/01/17 05:10:37;;;;;;;12.30;7.18;;;2.30;85.80;;;;;;4995025;28;20030;-84
2021/01/17 05:13:17;;;;;;;13.07;7.80;;;2.20;85.70;;;;;;4998299;28;20022;-81
2021/01/17 05:15:44;;;;;;;13.38;8.38;;;2.20;85.80;;;;;;4994187;28;20034;-85
2021/01/17 05:18:10;;;;;;;14.00;8.05;;;2.20;85.80;;;;;;4989001;28;20034;-86
2021/01/17 05:20:37;;;;;;;9.13;5.55;;;2.20;85.80;;;;;;4994005;28;20097;-85
2021/01/17 05:23:08;;;;;;;12.18;7.43;;;2.30;85.90;;;;;;4999094;28;20112;-86
2021/01/17 05:25:34;;;;;;;10.75;6.20;;;2.30;85.80;;;;;;4994737;28;20026;-85
2021/01/17 05:28:00;;;;;;;8.80;5.50;;;2.30;85.80;;;;;;5017977;28;20029;-86
2021/01/17 05:30:25;;;;;;;10.48;6.32;;;2.30;85.70;;;;;;4996718;28;20018;-86
2021/01/17 05:32:53;;;;;;;13.68;8.52;;;2.30;85.60;;;;;;4993250;28;20081;-85
2021/01/17 05:35:20;;;;;;;13.43;7.78;;;2.30;85.60;;;;;;4984519;28;20037;-86
2021/01/17 05:37:51;;;;;;;22.00;12.80;;;2.30;85.70;;;;;;4994463;28;20019;-86
2021/01/17 05:40:18;;;;;;;18.10;9.98;;;2.30;85.60;;;;;;4991878;28;20519;-85
2021/01/17 05:42:45;;;;;;;13.65;8.23;;;2.30;85.80;;;;;;4992980;28;20105;-86
2021/01/17 05:45:22;;;;;;;13.48;7.93;;;2.30;85.90;;;;;;4993483;28;20560;-85
2021/01/17 05:47:55;;;;;;;11.38;7.38;;;2.30;85.90;;;;;;4992395;28;20037;-84
2021/01/17 05:50:22;;;;;;;11.70;7.00;;;2.30;85.80;;;;;;4993093;28;20019;-84
2021/01/17 05:52:55;;;;;;;11.73;6.72;;;2.30;85.80;;;;;;4992182;28;20030;-84
2021/01/17 05:55:40;;;;;;;15.07;9.35;;;2.30;85.90;;;;;;4990585;28;20035;-84
2021/01/17 05:58:26;;;;;;;11.52;7.10;;;2.30;85.90;;;;;;4991648;28;20023;-84
2021/01/17 06:00:59;;;;;;;12.48;7.60;;;2.30;86.00;;;;;;4986898;28;20137;-84
2021/01/17 06:03:31;;;;;;;10.25;6.00;;;2.30;85.90;;;;;;4987434;28;20026;-84
2021/01/17 06:05:59;;;;;;;9.35;6.03;;;2.40;86.00;;;;;;4977658;28;20439;-83
2021/01/17 06:08:26;;;;;;;13.95;8.55;;;2.40;85.90;;;;;;4991917;28;20026;-84
2021/01/17 06:10:51;;;;;;;8.27;5.20;;;2.40;85.90;;;;;;4990669;28;20616;-85
2021/01/17 06:13:25;;;;;;;8.05;5.05;;;2.40;85.90;;;;;;4987019;28;20074;-84
2021/01/17 06:15:52;;;;;;;9.23;6.00;;;2.40;85.90;;;;;;4992503;28;20463;-83
2021/01/17 06:18:20;;;;;;;6.55;4.00;;;2.40;85.80;;;;;;4990201;28;20015;-83
2021/01/17 06:20:46;;;;;;;7.18;4.60;;;2.50;85.80;;;;;;4992179;28;20365;-83
2021/01/17 06:23:19;;;;;;;8.75;5.53;;;2.50;85.70;;;;;;4990253;28;20014;-84
2021/01/17 06:25:46;;;;;;;10.30;6.45;;;2.50;85.80;;;;;;4989649;28;20026;-84
2021/01/17 06:28:15;;;;;;;9.95;6.32;;;2.50;85.70;;;;;;5008635;28;20495;-83
2021/01/17 06:30:42;;;;;;;11.57;7.30;;;2.50;85.70;;;;;;4991538;28;20034;-84
2021/01/17 06:33:08;;;;;;;6.78;4.53;;;2.60;85.70;;;;;;4989033;28;20018;-84
2021/01/17 06:35:37;;;;;;;9.60;6.63;;;2.50;85.60;;;;;;4992420;28;20129;-84
2021/01/17 06:38:20;;;;;;;10.32;6.05;;;2.50;85.50;;;;;;5022280;28;20088;-84
2021/01/17 06:40:48;;;;;;;7.80;5.22;;;2.50;85.60;;;;;;4989549;28;20120;-84
2021/01/17 06:43:15;;;;;;;13.25;7.70;;;2.50;85.60;;;;;;4991310;28;20182;-83
2021/01/17 06:45:45;;;;;;;13.40;7.75;;;2.50;85.60;;;;;;4999063;28;20496;-85
2021/01/17 06:48:21;;;;;;;14.25;8.50;;;2.50;85.60;;;;;;5001456;28;20025;-85
2021/01/17 06:50:47;;;;;;;14.25;6.70;;;2.50;85.60;;;;;;4992079;28;20022;-85
2021/01/17 06:53:22;;;;;;;6.88;4.13;;;2.50;85.60;;;;;;4989990;28;20038;-84
2021/01/17 06:55:48;;;;;;;18.60;7.30;;;2.60;85.60;;;;;;4993043;28;20023;-84
2021/01/17 06:58:17;;;;;;;10.68;6.38;;;2.50;85.50;;;;;;5010877;28;20025;-85
2021/01/17 07:00:46;;;;;;;8.43;5.28;;;2.50;85.60;;;;;;5011295;28;20089;-84
2021/01/17 07:03:18;;;;;;;6.32;3.90;;;2.50;85.70;;;;;;5002996;28;20188;-83
2021/01/17 07:06:00;;;;;;;;;;;2.50;85.70;;;;;;5010538;28;20050;-84
2021/01/17 07:08:50;;;;;;;12.88;7.55;;;2.50;85.70;;;;;;4995777;28;19953;-84
2021/01/17 07:11:45;;;;;;;16.70;7.57;;;2.50;85.90;;;;;;4984442;28;20035;-84
2021/01/17 07:14:15;;;;;;;9.80;5.60;;;2.50;85.90;;;;;;4995134;28;20121;-84
2021/01/17 07:16:46;;;;;;;15.10;7.22;;;2.60;85.90;;;;;;5007532;28;20015;-85
2021/01/17 07:19:19;;;;;;;64.32;12.57;;;2.60;85.80;;;;;;5006164;28;20026;-85
2021/01/17 07:21:49;;;;;;;12.43;7.57;;;2.60;85.80;;;;;;5010213;28;20034;-85
2021/01/17 07:24:19;;;;;;;15.82;7.50;;;2.50;85.80;;;;;;4996352;28;20026;-83
2021/01/17 07:26:59;;;;;;;21.65;8.68;;;2.50;86.50;;;;;;4990229;28;20460;-83
2021/01/17 07:29:27;;;;;;;10.93;5.40;;;2.50;85.90;;;;;;4989298;28;20611;-84
2021/01/17 07:31:56;;;;;;;9.70;5.85;;;2.60;86.00;;;;;;4985521;28;20028;-86
2021/01/17 07:34:22;;;;;;;9.75;5.47;;;2.60;85.80;;;;;;4991858;28;20058;-86
2021/01/17 07:36:49;;;;;;;14.75;5.82;;;2.70;85.80;;;;;;4976534;28;20031;-85
2021/01/17 07:39:24;;;;;;;5.90;3.85;;;2.70;85.70;;;;;;4992041;28;20042;-85
2021/01/17 07:41:50;;;;;;;12.30;6.25;;;2.70;85.70;;;;;;4989969;28;20488;-86
2021/01/17 07:44:19;;;;;;;10.60;5.82;;;2.70;85.50;;;;;;4990481;28;20030;-85
2021/01/17 07:46:45;;;;;;;25.92;7.90;;;2.70;85.50;;;;;;4985009;28;20034;-86
2021/01/17 07:49:13;;;;;;;32.70;8.02;;;2.70;85.50;;;;;;4996529;28;20030;-87
2021/01/17 07:51:39;;;;;;;15.57;6.88;;;2.70;85.60;;;;;;4988795;28;20019;-86
2021/01/17 07:54:19;;;;;;;26.73;8.32;;;2.70;85.60;;;;;;4987612;28;20400;-86
2021/01/17 07:56:46;;;;;;;11.57;6.10;;;2.70;85.60;;;;;;4988448;28;20027;-86
2021/01/17 07:59:12;;;;;;;21.95;8.18;;;2.70;85.60;;;;;;4997979;28;20026;-86
2021/01/17 08:01:41;;;;;;;15.30;5.28;;;2.70;85.50;;;;;;4989655;28;20519;-86
2021/01/17 08:04:07;;;;;;;5.05;3.00;;;2.70;85.60;;;;;;4993951;28;20092;-86
2021/01/17 08:06:36;;;;;;;11.35;5.82;;;2.80;85.60;;;;;;4993258;28;20119;-87
2021/01/17 08:09:09;;;;;;;6.10;3.75;;;2.80;85.60;;;;;;4997654;28;20033;-87
2021/01/17 08:11:57;;;;;;;13.00;5.47;;;2.80;85.60;;;;;;4997227;28;20026;-86
2021/01/17 08:14:33;;;;;;;10.43;4.10;;;2.80;85.60;;;;;;5011725;28;20030;-85
2021/01/17 08:17:11;;;;;;;13.18;6.20;;;2.90;85.60;;;;;;4993246;28;20034;-85
2021/01/17 08:19:43;;;;;;;11.65;6.10;;;2.90;85.50;;;;;;4991967;28;20073;-87
2021/01/17 08:22:17;;;;;;;9.45;5.32;;;3.00;85.50;;;;;;4993633;28;20035;-84
2021/01/17 08:24:47;;;;;;;13.70;6.47;;;3.00;85.40;;;;;;4996035;28;20491;-83
2021/01/17 08:27:30;;;;;;;9.40;4.45;;;3.00;85.30;;;;;;4995993;28;20027;-84
2021/01/17 08:30:08;;;;;;;11.10;5.57;;;3.10;85.30;;;;;;4997820;28;20034;-84
2021/01/17 08:32:52;;;;;;;6.63;3.88;;;3.10;85.20;;;;;;5011344;28;20530;-85
2021/01/17 08:35:20;;;;;;;9.05;5.07;;;3.20;85.10;;;;;;4987933;28;20029;-84
2021/01/17 08:38:06;;;;;;;10.30;5.53;;;3.30;85.00;;;;;;4994437;28;20068;-84
2021/01/17 08:40:33;;;;;;;7.40;4.28;;;3.30;85.00;;;;;;4994266;28;20053;-88
2021/01/17 08:43:01;;;;;;;6.20;3.47;;;3.30;84.80;;;;;;4996760;28;20570;-85
2021/01/17 08:45:26;;;;;;;8.93;4.82;;;3.30;84.80;;;;;;4994391;28;20031;-86
2021/01/17 08:47:57;;;;;;;10.85;5.60;;;3.30;84.80;;;;;;5001641;28;20025;-83
2021/01/17 08:50:35;;;;;;;11.68;6.47;;;3.40;84.80;;;;;;4998689;28;20185;-84
2021/01/17 08:53:09;;;;;;;8.80;5.20;;;3.40;84.80;;;;;;4994298;28;20038;-84
2021/01/17 08:55:38;;;;;;;12.68;6.00;;;3.50;84.80;;;;;;5012332;28;20018;-92
2021/01/17 08:58:07;;;;;;;9.57;5.18;;;3.50;84.60;;;;;;5027650;28;20025;-94
2021/01/17 09:00:52;;;;;;;10.13;5.43;;;3.50;84.50;;;;;;5019192;28;20034;-84
2021/01/17 09:03:34;;;;;;;11.32;5.43;;;3.60;84.60;;;;;;5015993;28;20107;-82
2021/01/17 09:06:02;;;;;;;9.55;5.53;;;3.70;84.50;;;;;;4998731;28;20030;-85
2021/01/17 09:08:29;;;;;;;10.73;5.38;;;3.70;84.40;;;;;;4996060;28;20483;-84
2021/01/17 09:10:55;;;;;;;9.48;5.22;;;3.80;84.50;;;;;;5019078;28;20096;-85
2021/01/17 09:13:31;;;;;;;10.18;5.50;;;3.80;84.40;;;;;;5016790;28;20053;-84
2021/01/17 09:15:59;;;;;;;11.15;5.70;;;3.90;84.30;;;;;;4998015;28;20367;-84
2021/01/17 09:18:29;;;;;;;13.25;5.68;;;4.00;84.10;;;;;;4995852;28;20022;-84
2021/01/17 09:20:56;;;;;;;10.02;5.75;;;4.10;84.50;;;;;;4992731;28;20045;-83
2021/01/17 09:23:23;;;;;;;10.90;5.75;;;4.10;83.90;;;;;;4991772;28;20030;-84
2021/01/17 09:25:58;;;;;;;13.68;6.90;;;4.20;83.80;;;;;;4996064;28;20036;-84
2021/01/17 09:28:24;;;;;;;7.90;4.60;;;4.30;83.70;;;;;;4989961;28;20081;-84
2021/01/17 09:30:56;;;;;;;14.18;7.53;;;4.30;83.40;;;;;;4989465;28;20081;-84
2021/01/17 09:33:22;;;;;;;11.63;5.70;;;4.30;83.30;;;;;;4986286;28;20057;-83
2021/01/17 09:35:48;;;;;;;10.15;5.32;;;4.40;83.40;;;;;;4992959;28;20092;-84
2021/01/17 09:38:16;;;;;;;14.23;7.03;;;4.40;83.40;;;;;;4991019;28;20022;-83
2021/01/17 09:40:46;;;;;;;17.15;7.28;;;4.50;83.20;;;;;;4989899;28;20038;-84
2021/01/17 09:43:12;;;;;;;13.13;6.63;;;4.60;83.20;;;;;;4985243;28;20038;-84
2021/01/17 09:45:38;;;;;;;13.15;6.82;;;4.60;83.00;;;;;;5003833;28;20109;-83
2021/01/17 09:48:05;;;;;;;17.45;8.13;;;4.70;83.10;;;;;;4998013;28;20118;-90
2021/01/17 09:50:32;;;;;;;13.93;7.28;;;4.70;83.00;;;;;;4989235;28;20496;-86
2021/01/17 09:53:08;;;;;;;12.50;5.95;;;4.70;83.00;;;;;;4990887;28;20030;-92
2021/01/17 09:55:37;;;;;;;12.77;6.70;;;4.80;83.00;;;;;;4999916;28;20030;-91
2021/01/17 09:58:09;;;;;;;14.63;7.43;;;4.80;83.00;;;;;;5000656;28;20479;-91
2021/01/17 10:00:36;;;;;;;12.77;5.80;;;4.90;82.90;;;;;;4999180;28;20042;-93
2021/01/17 10:03:13;;;;;;;10.70;5.38;;;4.90;82.80;;;;;;5015385;28;20045;-91
2021/01/17 10:05:41;;;;;;;12.18;6.22;;;4.90;82.90;;;;;;5017306;28;20034;-93
2021/01/17 10:08:08;;;;;;;10.38;5.72;;;4.90;82.90;;;;;;4995102;28;20081;-92
2021/01/17 10:10:39;;;;;;;11.05;6.03;;;4.90;82.90;;;;;;5002073;28;20437;-93
2021/01/17 10:13:07;;;;;;;9.98;6.32;;;4.90;82.90;;;;;;4994787;28;20094;-92
2021/01/17 10:15:33;;;;;;;15.32;8.32;;;5.00;82.90;;;;;;5000948;28;20021;-92
2021/01/17 10:17:59;;;;;;;15.50;7.28;;;5.10;82.90;;;;;;4999292;28;20026;-92
2021/01/17 10:20:39;;;;;;;12.50;6.82;;;5.20;82.70;;;;;;5002624;28;20076;-91
2021/01/17 10:23:07;;;;;;;11.63;6.25;;;5.20;82.50;;;;;;4998492;28;20026;-94
2021/01/17 10:25:37;;;;;;;8.68;4.78;;;5.30;82.50;;;;;;4999290;28;20112;-94
2021/01/17 10:28:08;;;;;;;14.48;7.03;;;5.30;82.50;;;;;;5013198;28;20530;-93
2021/01/17 10:30:40;;;;;;;12.45;6.65;;;5.30;82.60;;;;;;5001889;28;20071;-94
2021/01/17 10:33:07;;;;;;;10.70;5.50;;;5.30;82.70;;;;;;4998007;28;20558;-96
2021/01/17 10:35:36;;;;;;;13.20;6.28;;;5.30;82.70;;;;;;5002251;28;20030;-92
2021/01/17 10:38:14;;;;;;;13.18;6.07;;;5.40;82.80;;;;;;4977727;28;20026;-91
2021/01/17 10:40:41;;;;;;;13.73;6.28;;;5.40;82.80;;;;;;5000916;28;20031;-92
2021/01/17 10:43:10;;;;;;;15.40;7.40;;;5.40;82.70;;;;;;4990751;28;20025;-92
2021/01/17 10:49:35;;;;;;;;;;;5.50;82.80;;;;;;4985731;28;20038;-92
2021/01/17 10:52:21;;;;;;;13.55;6.57;;;5.50;82.70;;;;;;4926956;29;19922;-92
2021/01/17 10:54:48;;;;;;;13.80;6.60;;;5.50;82.80;;;;;;4996993;28;20046;-91
2021/01/17 10:57:26;;;;;;;17.90;8.32;;;5.50;82.80;;;;;;4995687;28;20029;-89
2021/01/17 11:00:07;;;;;;;11.95;6.18;;;5.50;82.90;;;;;;5000380;28;20030;-90
2021/01/17 11:02:43;;;;;;;7.57;3.88;;;5.60;83.00;;;;;;4992359;28;20041;-90
2021/01/17 11:05:43;;;;;;;11.55;5.35;;;5.60;83.00;;;;;;5000221;22;20624;-90
2021/01/17 11:08:11;;;;;;;10.30;5.15;;;5.60;82.90;;;;;;5008468;28;20387;-92
2021/01/17 11:10:56;;;;;;;14.77;5.82;;;5.60;82.90;;;;;;4993335;28;20681;-93
2021/01/17 11:13:22;;;;;;;14.50;5.40;;;5.80;83.20;;;;;;5001843;28;20484;-92
2021/01/17 11:15:48;;;;;;;11.77;5.60;;;5.80;83.20;;;;;;4988821;28;20061;-94
2021/01/17 11:18:22;;;;;;;11.60;4.50;;;5.90;83.20;;;;;;5000293;28;20196;-93
2021/01/17 11:21:04;;;;;;;11.15;4.65;;;5.90;83.20;;;;;;5003715;28;20044;-93
2021/01/17 11:23:31;;;;;;;11.38;4.65;;;6.10;83.10;;;;;;4974105;28;20427;-96
2021/01/17 11:26:05;;;;;;;15.20;5.80;;;6.20;83.00;;;;;;4993482;28;20488;-93
2021/01/17 11:28:32;;;;;;;10.50;5.05;;;6.40;83.00;;;;;;4982816;28;20026;-91
2021/01/17 11:31:19;;;;;;;16.65;6.25;;;6.50;82.90;;;;;;4989415;28;20007;-92
2021/01/17 11:33:49;;;;;;;14.88;5.25;;;6.60;83.00;;;;;;5003231;28;20014;-93
2021/01/17 11:36:19;;;;;;;12.65;5.70;;;6.70;83.00;;;;;;4963697;28;20121;-93
2021/01/17 11:38:53;;;;;;;12.82;5.50;;;6.80;83.10;;;;;;4974959;28;20086;-93
2021/01/17 11:41:20;;;;;;;15.05;5.50;;;6.70;83.10;;;;;;4965230;28;20057;-94
2021/01/17 11:43:47;;;;;;;15.43;6.50;;;6.70;83.20;;;;;;4986222;28;20053;-92
2021/01/17 11:46:13;;;;;;;12.38;4.88;;;6.70;83.30;;;;;;4972306;28;20026;-94
2021/01/17 11:48:43;;;;;;;12.18;4.70;;;6.60;83.20;;;;;;4976078;28;20039;-92
2021/01/17 11:51:10;;;;;;;13.15;5.25;;;6.70;83.40;;;;;;4974756;28;20113;-91
2021/01/17 11:53:37;;;;;;;13.35;5.65;;;6.70;83.50;;;;;;4987798;28;20063;-94
2021/01/17 11:56:03;;;;;;;13.63;5.90;;;6.70;83.60;;;;;;4991828;28;20019;-93
2021/01/17 11:58:39;;;;;;;13.30;4.00;;;6.80;83.60;;;;;;4992202;28;20038;-93
2021/01/17 12:01:05;;;;;;;17.00;5.85;;;6.70;83.70;;;;;;4970348;28;20038;-93
2021/01/17 12:03:41;;;;;;;13.00;4.32;;;6.80;83.70;;;;;;4986723;28;20023;-93
2021/01/17 12:06:16;;;;;;;12.23;4.28;;;6.70;83.80;;;;;;4992196;28;20038;-93
2021/01/17 12:08:49;;;;;;;10.07;4.68;;;6.80;83.90;;;;;;4965282;28;20030;-93
2021/01/17 12:11:37;;;;;;;9.57;3.75;;;6.90;83.90;;;;;;4991081;28;20030;-95
2021/01/17 12:14:04;;;;;;;11.95;4.50;;;7.00;83.80;;;;;;4972702;28;20081;-93
2021/01/17 12:16:41;;;;;;;16.27;4.32;;;7.00;83.70;;;;;;4974262;28;20030;-94
2021/01/17 12:19:09;;;;;;;14.55;4.60;;;7.10;84.10;;;;;;4992849;28;20073;-94
2021/01/17 12:21:35;;;;;;;12.82;4.80;;;7.20;84.60;;;;;;4991495;28;20041;-94
2021/01/17 12:24:01;;;;;;;10.27;4.35;;;8.00;84.30;;;;;;4992446;28;20101;-93
2021/01/17 12:26:27;;;;;;;9.77;3.75;;;9.30;80.70;;;;;;4993488;28;20095;-93
2021/01/17 12:28:54;;;;;;;9.23;3.53;;;9.20;78.90;;;;;;4996821;28;20113;-94
2021/01/17 12:31:21;;;;;;;9.60;3.90;;;8.80;79.50;;;;;;4993976;28;20030;-94
2021/01/17 12:33:49;;;;;;;10.10;4.05;;;8.60;80.60;;;;;;5004908;28;20018;-92
2021/01/17 12:36:20;;;;;;;11.07;3.92;;;8.40;81.50;;;;;;5013918;28;20041;-94
2021/01/17 12:38:47;;;;;;;11.32;3.28;;;8.40;82.90;;;;;;4998644;28;20080;-96
2021/01/17 12:41:15;;;;;;;10.93;3.30;;;9.40;82.30;;;;;;5016676;28;20036;-96
2021/01/17 12:43:43;;;;;;;8.93;3.72;;;10.20;80.20;;;;;;5003603;28;20053;-96
2021/01/17 12:46:10;;;;;;;11.18;3.67;;;10.70;78.30;;;;;;5014995;28;20030;-96
2021/01/17 12:48:38;;;;;;;14.18;4.25;;;11.10;77.50;;;;;;4979397;28;20030;-96
2021/01/17 12:51:05;;;;;;;13.00;3.90;;;11.60;76.00;;;;;;4976159;28;20338;-93
2021/01/17 12:53:30;;;;;;;14.13;4.40;;;12.20;75.10;;;;;;5002223;28;20027;-93
2021/01/17 12:56:01;;;;;;;8.95;3.63;;;12.50;73.90;;;;;;4982229;28;20383;-95
2021/01/17 12:58:26;;;;;;;12.50;3.85;;;12.90;73.30;;;;;;5002554;28;20022;-96
2021/01/17 13:00:52;;;;;;;8.30;3.65;;;13.20;72.40;;;;;;5010807;28;20065;-94
2021/01/17 13:03:18;;;;;;;8.40;3.20;;;13.20;72.20;;;;;;5000370;28;20018;-96
2021/01/17 13:05:56;;;;;;;7.75;3.13;;;13.40;72.10;;;;;;5014564;28;20045;-95